Time;durP1;ratioP1;P1;durP2;ratioP2;P2;SDS_P1;SDS_P2;PMS_P1;PMS_P2;Temp;Humidity;BMP_temperature;BMP_pressure;BME280_temperature;BME280_humidity;BME280_pressure;Samples;Min_cycle;Max_cycle;Signal;HPM_P1;HPM_P2
2022/01/15 00:01:45;;;;;;;17.65;8.88;;;17.50;57.40;;;;;;4912196;28;95026;-75
2022/01/15 00:04:11;;;;;;;13.60;8.27;;;17.50;57.40;;;;;;4912336;28;92754;-75
2022/01/15 00:06:37;;;;;;;16.38;8.75;;;17.50;57.40;;;;;;4911983;28;92936;-75
2022/01/15 00:09:04;;;;;;;15.63;7.55;;;17.50;57.40;;;;;;4911233;28;93218;-75
2022/01/15 00:11:29;;;;;;;13.60;7.80;;;17.50;57.30;;;;;;4912228;28;92690;-74
2022/01/15 00:13:58;;;;;;;16.10;8.27;;;17.40;57.20;;;;;;4911848;28;92872;-75
2022/01/15 00:16:31;;;;;;;13.68;7.40;;;17.40;57.20;;;;;;4913020;28;92105;-75
2022/01/15 00:19:06;;;;;;;14.73;6.97;;;17.40;57.20;;;;;;4914047;28;93557;-74
2022/01/15 00:21:32;;;;;;;12.93;7.25;;;17.40;57.30;;;;;;4916286;28;94511;-74
2022/01/15 00:23:57;;;;;;;12.52;7.30;;;17.40;57.20;;;;;;4914648;28;95005;-74
2022/01/15 00:26:24;;;;;;;13.68;7.38;;;17.40;57.30;;;;;;4913539;28;92985;-74
2022/01/15 00:28:51;;;;;;;12.88;6.72;;;17.40;57.20;;;;;;4911046;28;94178;-74
2022/01/15 00:31:16;;;;;;;13.45;7.57;;;17.40;58.20;;;;;;4911996;28;92788;-75
2022/01/15 00:33:42;;;;;;;12.20;6.70;;;17.40;57.10;;;;;;4911849;28;92868;-74
2022/01/15 00:36:07;;;;;;;12.23;6.72;;;17.40;57.10;;;;;;4912960;28;92989;-75
2022/01/15 00:38:33;;;;;;;14.95;6.90;;;17.30;57.10;;;;;;4911362;28;93491;-75
2022/01/15 00:40:59;;;;;;;12.88;6.40;;;17.30;57.10;;;;;;4912056;28;93053;-74
2022/01/15 00:43:24;;;;;;;11.18;6.95;;;17.30;57.10;;;;;;4911441;28;92545;-74
2022/01/15 00:45:50;;;;;;;10.88;6.07;;;17.30;57.10;;;;;;4912306;28;92752;-74
2022/01/15 00:48:16;;;;;;;10.90;6.00;;;17.30;57.00;;;;;;4910720;28;95459;-74
2022/01/15 00:50:42;;;;;;;9.85;6.07;;;17.30;57.10;;;;;;4911627;28;95611;-74
2022/01/15 00:53:08;;;;;;;10.77;6.32;;;17.30;57.10;;;;;;4911624;28;92752;-74
2022/01/15 00:55:33;;;;;;;12.55;6.25;;;17.30;57.00;;;;;;4911501;28;92908;-74
2022/01/15 00:57:59;;;;;;;9.57;5.70;;;17.30;57.00;;;;;;4911547;28;97049;-75
2022/01/15 01:00:26;;;;;;;11.45;6.15;;;17.20;57.00;;;;;;4910478;28;92975;-75
2022/01/15 01:02:53;;;;;;;11.45;5.82;;;17.20;57.00;;;;;;4910957;28;93179;-75
2022/01/15 01:05:20;;;;;;;8.65;5.50;;;17.20;57.00;;;;;;4912343;28;92083;-74
2022/01/15 01:07:46;;;;;;;10.55;5.57;;;17.20;56.90;;;;;;4914360;28;92989;-75
2022/01/15 01:23:04;;;;;;;7.68;4.88;;;17.20;56.90;;;;;;4914616;28;92517;-75
2022/01/15 01:25:37;;;;;;;8.45;4.82;;;17.20;56.90;;;;;;4915903;28;92887;-75
2022/01/15 01:28:09;;;;;;;8.45;4.93;;;17.10;56.80;;;;;;4915316;28;94468;-75
2022/01/15 01:30:44;;;;;;;8.35;4.78;;;17.10;56.80;;;;;;4915774;28;92083;-75
2022/01/15 01:33:29;;;;;;;7.63;5.20;;;17.10;56.80;;;;;;4914714;28;92581;-74
2022/01/15 01:38:56;;;;;;;8.10;4.93;;;17.10;56.80;;;;;;4913577;28;95219;-75
2022/01/15 01:41:23;;;;;;;8.73;4.68;;;17.10;57.80;;;;;;4914401;28;96727;-75
2022/01/15 01:43:59;;;;;;;8.27;4.35;;;17.10;56.80;;;;;;4913511;28;92533;-75
2022/01/15 01:48:53;;;;;;;6.72;4.30;;;17.10;56.70;;;;;;4914165;28;94136;-74
2022/01/15 01:51:31;;;;;;;6.13;4.13;;;17.10;56.70;;;;;;4914330;28;95623;-74
2022/01/15 01:54:02;;;;;;;8.15;4.20;;;17.10;56.60;;;;;;4914847;28;93924;-75
2022/01/15 01:56:28;;;;;;;8.82;4.82;;;17.00;56.60;;;;;;4914839;28;91919;-74
2022/01/15 01:58:54;;;;;;;7.10;4.20;;;17.00;56.60;;;;;;4914527;28;93238;-75
2022/01/15 02:01:20;;;;;;;8.73;4.72;;;17.00;56.50;;;;;;4915572;28;93228;-75
2022/01/15 02:03:48;;;;;;;7.68;4.15;;;17.00;56.50;;;;;;4916838;28;94924;-74
2022/01/15 02:06:15;;;;;;;9.50;4.60;;;17.10;56.60;;;;;;4918818;28;92460;-75
2022/01/15 02:08:41;;;;;;;7.88;4.30;;;17.00;56.50;;;;;;4914642;28;92881;-75
2022/01/15 02:11:07;;;;;;;7.63;4.20;;;17.00;56.60;;;;;;4913491;28;93830;-74
2022/01/15 02:13:40;;;;;;;6.72;4.25;;;17.00;56.50;;;;;;4914991;28;92634;-75
2022/01/15 02:16:06;;;;;;;7.38;3.53;;;17.00;56.50;;;;;;4913608;28;92954;-74
2022/01/15 02:18:33;;;;;;;5.70;3.80;;;17.00;56.50;;;;;;4913957;28;94140;-75
2022/01/15 02:23:44;;;;;;;6.00;3.80;;;17.00;56.50;;;;;;4913892;28;92583;-73
2022/01/15 02:26:24;;;;;;;7.70;3.72;;;16.90;56.50;;;;;;4914196;28;92723;-75
2022/01/15 02:28:59;;;;;;;5.82;3.55;;;17.00;56.50;;;;;;4912392;28;95673;-75
2022/01/15 02:31:26;;;;;;;6.55;3.92;;;17.00;56.50;;;;;;4911994;28;96240;-75
2022/01/15 02:33:53;;;;;;;6.50;3.60;;;16.90;56.40;;;;;;4912649;28;93025;-75
2022/01/15 02:36:22;;;;;;;6.53;3.40;;;16.90;57.40;;;;;;4913069;28;93089;-74
2022/01/15 02:38:48;;;;;;;6.65;3.63;;;16.90;56.40;;;;;;4912962;28;93918;-75
2022/01/15 02:41:23;;;;;;;5.57;3.50;;;16.90;56.50;;;;;;4911775;28;93218;-75
2022/01/15 02:43:49;;;;;;;7.70;3.80;;;16.90;56.40;;;;;;4911644;28;92601;-75
2022/01/15 02:48:51;;;;;;;6.18;3.30;;;16.90;56.40;;;;;;4912253;28;93053;-75
2022/01/15 02:51:32;;;;;;;5.57;3.30;;;16.90;56.40;;;;;;4912456;28;93046;-74
2022/01/15 02:53:59;;;;;;;5.53;3.60;;;16.90;56.30;;;;;;4912545;28;95325;-75
2022/01/15 02:56:37;;;;;;;4.95;3.10;;;16.90;56.40;;;;;;4913199;28;92545;-75
2022/01/15 02:59:05;;;;;;;4.65;3.00;;;16.90;56.30;;;;;;4912016;28;97003;-75
2022/01/15 03:01:31;;;;;;;4.00;3.10;;;16.90;56.30;;;;;;4913084;28;92766;-75
2022/01/15 03:03:57;;;;;;;6.93;3.55;;;16.80;56.30;;;;;;4913644;28;92618;-75
2022/01/15 03:06:23;;;;;;;4.85;3.35;;;16.80;56.30;;;;;;4914224;28;92542;-75
2022/01/15 03:08:50;;;;;;;4.38;3.10;;;16.80;56.30;;;;;;4913976;28;92991;-74
2022/01/15 03:11:17;;;;;;;5.05;3.15;;;16.80;56.20;;;;;;4912731;28;93800;-74
2022/01/15 03:13:46;;;;;;;3.75;2.90;;;16.80;56.20;;;;;;4913369;28;92477;-75
2022/01/15 03:16:17;;;;;;;5.72;3.40;;;16.80;56.20;;;;;;4913003;28;92942;-75
2022/01/15 03:18:43;;;;;;;5.38;3.20;;;16.80;56.20;;;;;;4912012;28;96908;-75
2022/01/15 03:21:11;;;;;;;4.68;3.08;;;16.80;56.20;;;;;;4913023;28;94963;-75
2022/01/15 03:23:37;;;;;;;5.72;3.30;;;16.80;56.20;;;;;;4912907;28;92599;-75
2022/01/15 03:26:04;;;;;;;4.32;3.13;;;16.80;56.20;;;;;;4912151;28;93031;-75
2022/01/15 03:28:30;;;;;;;4.88;3.05;;;16.80;56.10;;;;;;4912093;28;94052;-75
2022/01/15 03:30:55;;;;;;;4.45;3.35;;;16.80;56.10;;;;;;4912449;28;93032;-75
2022/01/15 03:33:21;;;;;;;5.00;3.20;;;16.80;56.20;;;;;;4913245;28;92981;-75
2022/01/15 03:35:47;;;;;;;5.10;2.92;;;16.80;56.10;;;;;;4912537;28;92335;-75
2022/01/15 03:38:13;;;;;;;3.75;2.90;;;16.80;56.20;;;;;;4913176;28;92480;-75
2022/01/15 03:40:38;;;;;;;3.50;2.90;;;16.80;56.10;;;;;;4912941;28;92644;-75
2022/01/15 03:43:05;;;;;;;4.95;3.25;;;16.70;56.10;;;;;;4911025;28;95133;-75
2022/01/15 03:45:31;;;;;;;5.05;2.95;;;16.80;56.10;;;;;;4912548;28;93057;-75
2022/01/15 03:47:57;;;;;;;5.90;3.10;;;16.80;56.10;;;;;;4912792;28;93115;-75
2022/01/15 03:50:24;;;;;;;4.00;2.70;;;16.70;56.00;;;;;;4913135;28;92698;-75
2022/01/15 03:52:51;;;;;;;3.92;3.20;;;16.70;56.00;;;;;;4912302;28;92550;-75
2022/01/15 03:55:18;;;;;;;5.03;3.35;;;16.70;56.00;;;;;;4911319;28;92838;-74
2022/01/15 03:57:44;;;;;;;4.57;2.92;;;16.70;56.00;;;;;;4912394;28;93090;-75
2022/01/15 04:00:16;;;;;;;4.28;3.05;;;16.70;56.10;;;;;;4912326;28;93219;-75
2022/01/15 04:02:42;;;;;;;3.40;2.63;;;16.70;56.00;;;;;;4912120;28;92875;-75
2022/01/15 04:05:09;;;;;;;5.65;3.22;;;16.70;56.00;;;;;;4912390;28;92917;-75
2022/01/15 04:07:35;;;;;;;4.78;2.97;;;16.70;55.90;;;;;;4911679;28;95237;-75
2022/01/15 04:10:02;;;;;;;3.90;3.05;;;16.70;55.90;;;;;;4911706;28;95000;-75
2022/01/15 04:12:27;;;;;;;4.25;2.80;;;16.70;55.90;;;;;;4913230;28;93105;-75
2022/01/15 04:14:53;;;;;;;3.35;2.45;;;16.70;55.90;;;;;;4912772;28;92513;-75
2022/01/15 04:17:20;;;;;;;3.92;2.78;;;16.70;55.80;;;;;;4912689;28;97443;-75
2022/01/15 04:19:46;;;;;;;4.68;2.92;;;16.80;55.90;;;;;;4911759;28;93850;-73
2022/01/15 04:22:11;;;;;;;4.13;3.00;;;16.80;55.80;;;;;;4911698;28;93071;-74
2022/01/15 04:24:37;;;;;;;4.18;2.63;;;16.80;55.70;;;;;;4911850;28;92228;-75
2022/01/15 04:27:03;;;;;;;3.58;2.83;;;16.80;55.60;;;;;;4911446;28;93091;-74
2022/01/15 04:29:31;;;;;;;3.47;2.60;;;16.80;55.50;;;;;;4910862;28;93512;-75
2022/01/15 04:31:57;;;;;;;3.58;2.70;;;16.80;55.40;;;;;;4910429;28;95248;-75
2022/01/15 04:34:27;;;;;;;3.50;2.67;;;16.80;55.40;;;;;;4911618;28;92604;-75
2022/01/15 04:36:59;;;;;;;2.63;2.30;;;16.90;55.40;;;;;;4911771;28;93180;-75
2022/01/15 04:39:25;;;;;;;3.28;2.10;;;16.80;55.40;;;;;;4911572;28;94477;-75
2022/01/15 04:41:51;;;;;;;4.00;2.55;;;16.90;55.40;;;;;;4914539;28;92593;-75
2022/01/15 04:44:16;;;;;;;3.20;2.35;;;16.90;55.30;;;;;;4913616;28;95215;-75
2022/01/15 04:46:43;;;;;;;4.07;2.40;;;16.90;55.20;;;;;;4913945;28;93650;-75
2022/01/15 04:49:08;;;;;;;4.00;2.20;;;16.90;55.20;;;;;;4914483;28;92806;-75
2022/01/15 04:51:35;;;;;;;3.55;2.10;;;16.90;55.20;;;;;;4914093;28;92652;-75
2022/01/15 04:54:00;;;;;;;3.50;2.15;;;16.90;55.10;;;;;;4913990;28;93437;-74
2022/01/15 04:56:26;;;;;;;2.75;2.13;;;16.90;55.10;;;;;;4914042;28;96046;-75
2022/01/15 04:58:52;;;;;;;3.03;2.15;;;16.90;55.00;;;;;;4915312;28;95721;-75
2022/01/15 05:01:17;;;;;;;3.63;2.15;;;16.90;55.00;;;;;;4915540;28;92576;-75
2022/01/15 05:03:43;;;;;;;2.65;1.73;;;16.90;54.90;;;;;;4914653;28;92964;-75
2022/01/15 05:06:09;;;;;;;2.97;1.80;;;17.00;54.80;;;;;;4914502;28;93030;-75
2022/01/15 05:08:35;;;;;;;2.08;1.63;;;17.20;54.60;;;;;;4914341;28;93258;-75
2022/01/15 05:11:11;;;;;;;2.50;1.90;;;17.30;54.30;;;;;;4913755;28;93055;-75
2022/01/15 05:13:37;;;;;;;2.28;1.65;;;17.40;54.00;;;;;;4914538;28;92167;-75
2022/01/15 05:16:03;;;;;;;2.88;1.95;;;17.50;53.70;;;;;;4914091;28;94451;-75
2022/01/15 05:18:29;;;;;;;2.53;1.50;;;17.60;53.60;;;;;;4915881;28;93682;-75
2022/01/15 05:20:56;;;;;;;2.30;1.88;;;17.70;53.30;;;;;;4916542;28;94924;-74
2022/01/15 05:23:24;;;;;;;2.00;1.52;;;17.80;53.10;;;;;;4918876;28;93381;-74
2022/01/15 05:25:50;;;;;;;1.92;1.52;;;17.90;53.00;;;;;;4917359;28;93030;-74
2022/01/15 05:28:15;;;;;;;1.63;1.40;;;17.90;52.70;;;;;;4915960;28;92771;-75
2022/01/15 05:30:41;;;;;;;2.50;1.70;;;18.00;52.60;;;;;;4915424;28;98938;-74
2022/01/15 05:33:06;;;;;;;1.85;1.23;;;18.00;52.60;;;;;;4914578;28;92602;-73
2022/01/15 05:35:32;;;;;;;2.15;1.35;;;18.00;52.50;;;;;;4913519;28;98795;-74
2022/01/15 05:37:59;;;;;;;2.00;1.45;;;18.00;52.40;;;;;;4913880;28;92958;-74
2022/01/15 05:40:26;;;;;;;2.08;1.50;;;18.00;52.40;;;;;;4914963;28;92458;-75
2022/01/15 05:42:53;;;;;;;1.48;1.33;;;18.00;52.40;;;;;;4914095;28;92657;-74
2022/01/15 05:45:21;;;;;;;2.72;1.75;;;18.10;52.40;;;;;;4912864;28;95320;-74
2022/01/15 05:47:48;;;;;;;2.25;1.50;;;18.10;52.30;;;;;;4914359;28;94986;-74
2022/01/15 05:50:14;;;;;;;1.90;1.50;;;18.00;52.30;;;;;;4915863;28;92435;-75
2022/01/15 05:52:40;;;;;;;1.52;1.35;;;18.00;52.30;;;;;;4913760;28;93097;-75
2022/01/15 05:55:06;;;;;;;3.08;1.40;;;18.00;52.30;;;;;;4913874;28;93873;-75
2022/01/15 05:57:32;;;;;;;1.63;1.30;;;18.00;52.30;;;;;;4914525;28;93112;-74
2022/01/15 05:59:57;;;;;;;2.38;1.30;;;18.00;52.20;;;;;;4913818;28;92846;-74
2022/01/15 06:02:23;;;;;;;3.25;1.60;;;18.00;52.20;;;;;;4915754;28;92193;-73
2022/01/15 06:04:49;;;;;;;2.53;1.65;;;18.00;52.60;;;;;;4913999;28;95104;-73
2022/01/15 06:07:14;;;;;;;1.88;1.50;;;18.00;52.70;;;;;;4914334;28;92662;-73
2022/01/15 06:09:40;;;;;;;2.88;1.77;;;18.10;52.80;;;;;;4911851;28;95326;-73
2022/01/15 06:12:06;;;;;;;2.55;1.70;;;18.10;52.70;;;;;;4914412;28;93145;-73
2022/01/15 06:14:32;;;;;;;1.80;1.33;;;18.10;52.70;;;;;;4914612;28;93809;-74
2022/01/15 06:16:58;;;;;;;2.45;1.58;;;18.10;52.70;;;;;;4913856;28;92610;-73
2022/01/15 06:19:25;;;;;;;2.70;1.70;;;18.10;52.70;;;;;;4914389;28;92852;-73
2022/01/15 06:21:51;;;;;;;1.88;1.52;;;18.10;52.60;;;;;;4913869;28;92783;-73
2022/01/15 06:24:16;;;;;;;2.38;1.80;;;18.20;52.60;;;;;;4914061;28;93125;-73
2022/01/15 06:26:43;;;;;;;5.57;1.60;;;18.20;52.60;;;;;;4913835;28;102124;-74
2022/01/15 06:29:08;;;;;;;2.45;1.77;;;18.20;52.60;;;;;;4913155;28;93181;-73
2022/01/15 06:31:35;;;;;;;2.53;1.77;;;18.20;53.80;;;;;;4914293;28;92900;-73
2022/01/15 06:34:01;;;;;;;2.92;1.98;;;18.20;52.80;;;;;;4912732;28;95447;-74
2022/01/15 06:36:27;;;;;;;3.83;1.75;;;18.20;52.90;;;;;;4913756;28;96453;-73
2022/01/15 06:38:53;;;;;;;2.85;1.63;;;18.20;52.90;;;;;;4914555;28;92915;-73
2022/01/15 06:41:20;;;;;;;2.40;1.80;;;18.20;53.00;;;;;;4913741;28;93437;-73
2022/01/15 06:43:46;;;;;;;3.55;1.60;;;18.20;53.30;;;;;;4912746;28;94162;-72
2022/01/15 06:46:12;;;;;;;2.22;1.80;;;18.20;53.50;;;;;;4913528;28;94101;-74
2022/01/15 06:48:37;;;;;;;1.88;1.67;;;18.20;53.50;;;;;;4912285;28;93041;-74
2022/01/15 06:51:04;;;;;;;3.30;1.85;;;18.20;53.50;;;;;;4913738;28;93104;-73
2022/01/15 06:53:30;;;;;;;2.42;1.83;;;18.10;53.60;;;;;;4913673;28;93516;-73
2022/01/15 06:55:56;;;;;;;6.13;1.90;;;18.10;53.60;;;;;;4913006;28;92658;-73
2022/01/15 06:58:25;;;;;;;2.75;1.77;;;18.10;54.00;;;;;;4912475;28;94999;-73
2022/01/15 07:00:51;;;;;;;2.10;1.75;;;18.00;54.20;;;;;;4912854;28;92462;-75
2022/01/15 07:03:17;;;;;;;2.70;1.92;;;18.00;54.10;;;;;;4911782;28;92906;-74
2022/01/15 07:05:43;;;;;;;2.88;1.85;;;18.00;54.00;;;;;;4913686;28;93720;-74
2022/01/15 07:08:09;;;;;;;2.53;2.00;;;18.00;54.10;;;;;;4913495;28;92638;-75
2022/01/15 07:10:39;;;;;;;2.70;1.90;;;17.90;54.00;;;;;;4917990;28;92460;-74
2022/01/15 07:13:05;;;;;;;3.45;2.20;;;17.90;54.30;;;;;;4915728;28;94699;-75
2022/01/15 07:15:32;;;;;;;2.55;1.80;;;17.90;54.50;;;;;;4913864;28;92306;-74
2022/01/15 07:17:59;;;;;;;3.53;2.10;;;17.80;54.60;;;;;;4914027;28;94057;-74
2022/01/15 07:20:25;;;;;;;3.08;2.13;;;17.80;54.40;;;;;;4913098;28;92671;-74
2022/01/15 07:22:51;;;;;;;3.75;2.50;;;17.80;54.10;;;;;;4911823;28;95401;-73
2022/01/15 07:25:16;;;;;;;4.07;2.45;;;17.80;54.10;;;;;;4911860;28;104605;-74
2022/01/15 07:27:42;;;;;;;6.85;2.70;;;17.70;53.90;;;;;;4912635;28;92829;-74
2022/01/15 07:30:10;;;;;;;7.30;3.10;;;17.70;54.00;;;;;;4912535;28;92947;-76
2022/01/15 07:32:36;;;;;;;4.53;2.75;;;17.60;53.80;;;;;;4912683;28;95472;-75
2022/01/15 07:35:04;;;;;;;3.97;2.55;;;17.60;54.90;;;;;;4912067;28;94021;-74
2022/01/15 07:37:31;;;;;;;3.60;2.53;;;17.60;54.10;;;;;;4913431;28;92496;-75
2022/01/15 07:39:57;;;;;;;6.47;2.95;;;17.60;54.20;;;;;;4912770;28;91843;-74
2022/01/15 07:42:23;;;;;;;4.63;2.80;;;17.60;54.30;;;;;;4912446;28;92968;-73
2022/01/15 07:44:49;;;;;;;4.75;2.92;;;17.60;54.50;;;;;;4911817;28;93890;-75
2022/01/15 07:47:14;;;;;;;3.35;2.38;;;17.50;54.60;;;;;;4910442;28;94950;-76
2022/01/15 07:49:41;;;;;;;4.47;3.17;;;17.50;54.80;;;;;;4912109;28;92840;-76
2022/01/15 07:52:07;;;;;;;12.13;3.42;;;17.50;55.00;;;;;;4912251;28;93228;-74
2022/01/15 07:54:32;;;;;;;6.38;3.78;;;17.50;55.40;;;;;;4911385;28;93062;-74
2022/01/15 07:56:58;;;;;;;9.32;3.70;;;17.50;55.40;;;;;;4912298;28;92941;-73
2022/01/15 07:59:25;;;;;;;10.48;3.75;;;17.40;55.50;;;;;;4912242;28;93047;-74
2022/01/15 08:01:51;;;;;;;7.28;3.83;;;17.40;55.60;;;;;;4911546;28;92946;-74
2022/01/15 08:04:17;;;;;;;9.15;3.83;;;17.40;55.70;;;;;;4913103;28;92229;-75
2022/01/15 08:06:42;;;;;;;8.95;3.55;;;17.40;55.70;;;;;;4912479;28;92956;-76
2022/01/15 08:09:08;;;;;;;6.97;3.60;;;17.30;55.70;;;;;;4912090;28;92613;-74
2022/01/15 08:11:34;;;;;;;6.90;3.55;;;17.30;55.70;;;;;;4910750;28;95307;-76
2022/01/15 08:14:00;;;;;;;6.50;3.50;;;17.30;55.70;;;;;;4910951;28;95174;-75
2022/01/15 08:16:26;;;;;;;10.05;3.70;;;17.30;55.70;;;;;;4912402;28;96568;-73
2022/01/15 08:18:51;;;;;;;8.20;4.13;;;17.30;55.70;;;;;;4912067;28;92548;-74
2022/01/15 08:21:17;;;;;;;6.65;4.03;;;17.30;55.70;;;;;;4911233;28;94951;-74
2022/01/15 08:23:43;;;;;;;10.45;4.35;;;17.30;55.70;;;;;;4911709;28;92696;-75
2022/01/15 08:26:09;;;;;;;6.95;3.80;;;17.30;55.70;;;;;;4912225;28;92946;-75
2022/01/15 08:28:37;;;;;;;9.45;3.95;;;17.20;55.80;;;;;;4912303;28;91876;-74
2022/01/15 08:31:05;;;;;;;12.32;4.00;;;17.20;55.90;;;;;;4911972;28;94732;-75
2022/01/15 08:33:31;;;;;;;9.88;4.10;;;17.20;55.90;;;;;;4910946;28;94099;-73
2022/01/15 08:35:57;;;;;;;7.25;4.03;;;17.20;55.90;;;;;;4910289;28;95204;-76
2022/01/15 08:38:23;;;;;;;8.70;3.85;;;17.20;55.90;;;;;;4911935;28;92927;-74
2022/01/15 08:40:49;;;;;;;8.13;3.95;;;17.10;55.90;;;;;;4911182;28;92588;-75
2022/01/15 08:43:15;;;;;;;10.43;4.50;;;17.10;56.00;;;;;;4911412;28;93065;-76
2022/01/15 08:45:42;;;;;;;8.95;4.22;;;17.10;56.00;;;;;;4910372;28;92823;-75
2022/01/15 08:48:08;;;;;;;7.07;4.05;;;17.00;56.00;;;;;;4911436;28;92569;-75
2022/01/15 08:50:35;;;;;;;7.22;4.20;;;17.00;56.00;;;;;;4911660;28;93246;-75
2022/01/15 08:53:01;;;;;;;6.68;4.57;;;17.00;56.10;;;;;;4912936;28;94029;-73
2022/01/15 08:55:29;;;;;;;8.88;4.80;;;16.90;56.00;;;;;;4915927;28;92969;-75
2022/01/15 08:57:56;;;;;;;7.72;4.10;;;16.90;56.10;;;;;;4915404;28;92524;-74
2022/01/15 09:00:22;;;;;;;6.50;4.50;;;16.90;56.10;;;;;;4912196;28;95534;-74
2022/01/15 09:02:48;;;;;;;6.05;3.95;;;16.90;56.10;;;;;;4911307;28;95236;-75
2022/01/15 09:05:14;;;;;;;5.75;3.97;;;16.90;56.10;;;;;;4911116;28;92951;-75
2022/01/15 09:07:40;;;;;;;8.00;4.45;;;16.80;56.10;;;;;;4911150;28;92745;-75
2022/01/15 09:10:06;;;;;;;6.35;3.80;;;16.80;56.10;;;;;;4911409;28;93754;-75
2022/01/15 09:12:32;;;;;;;7.32;3.97;;;16.80;56.20;;;;;;4912529;28;94109;-75
2022/01/15 09:14:59;;;;;;;7.65;4.63;;;16.80;56.20;;;;;;4911468;28;94244;-75
2022/01/15 09:17:28;;;;;;;6.60;4.47;;;16.80;56.20;;;;;;4910902;28;91875;-76
2022/01/15 09:19:54;;;;;;;6.95;4.80;;;16.80;56.20;;;;;;4910974;28;92918;-75
2022/01/15 09:22:21;;;;;;;6.97;4.50;;;16.70;56.20;;;;;;4910488;28;93737;-74
2022/01/15 09:24:47;;;;;;;6.15;4.30;;;16.70;57.20;;;;;;4908269;28;94963;-75
2022/01/15 09:30:12;;;;;;;7.45;4.50;;;16.70;56.10;;;;;;4913805;28;92648;-74
2022/01/15 09:32:48;;;;;;;6.55;4.20;;;16.70;56.10;;;;;;4913852;28;92692;-75
2022/01/15 09:35:18;;;;;;;6.93;4.03;;;16.80;56.10;;;;;;4914610;28;92899;-75
2022/01/15 09:37:44;;;;;;;7.55;3.90;;;16.80;56.00;;;;;;4914187;28;92551;-74
2022/01/15 09:40:10;;;;;;;6.30;4.05;;;16.80;55.90;;;;;;4914057;28;93928;-74
2022/01/15 09:42:38;;;;;;;5.93;4.00;;;16.80;55.80;;;;;;4913662;28;93374;-74
2022/01/15 09:45:06;;;;;;;7.32;3.95;;;16.80;55.70;;;;;;4913716;28;92656;-74
2022/01/15 09:47:33;;;;;;;6.85;4.03;;;16.80;55.70;;;;;;4913830;28;93100;-74
2022/01/15 09:49:59;;;;;;;6.10;4.07;;;16.80;55.50;;;;;;4913035;28;95406;-74
2022/01/15 09:52:25;;;;;;;6.47;3.97;;;16.90;55.50;;;;;;4913316;28;93917;-74
2022/01/15 09:54:51;;;;;;;5.78;4.00;;;16.80;55.40;;;;;;4914272;28;92501;-73
2022/01/15 09:57:18;;;;;;;7.93;3.95;;;16.90;55.40;;;;;;4914612;28;93391;-74
2022/01/15 09:59:43;;;;;;;5.68;4.03;;;16.90;55.40;;;;;;4914846;28;93556;-74
2022/01/15 10:02:09;;;;;;;8.02;3.92;;;16.90;55.40;;;;;;4913855;28;93392;-74
2022/01/15 10:04:35;;;;;;;5.10;3.90;;;16.90;55.40;;;;;;4912853;28;94412;-74
2022/01/15 10:07:09;;;;;;;6.00;4.07;;;16.90;55.30;;;;;;4913822;28;92221;-74
2022/01/15 10:09:37;;;;;;;7.00;4.00;;;16.90;55.30;;;;;;4914040;28;94134;-74
2022/01/15 10:12:03;;;;;;;7.13;4.47;;;16.90;55.20;;;;;;4914220;28;92732;-74
2022/01/15 10:14:34;;;;;;;6.55;3.65;;;16.90;55.00;;;;;;4913090;28;95096;-74
2022/01/15 10:17:02;;;;;;;5.00;3.55;;;16.90;54.90;;;;;;4914372;28;92488;-74
2022/01/15 10:19:32;;;;;;;5.18;4.15;;;16.90;54.90;;;;;;4913633;28;94161;-73
2022/01/15 10:22:11;;;;;;;5.70;3.78;;;16.90;54.80;;;;;;4913073;28;93013;-73
2022/01/15 10:24:40;;;;;;;4.22;3.58;;;16.90;54.70;;;;;;4912836;28;93020;-74
2022/01/15 10:27:21;;;;;;;4.75;3.42;;;16.90;54.70;;;;;;4913397;28;92631;-74
2022/01/15 10:29:52;;;;;;;5.13;3.60;;;16.90;54.60;;;;;;4913579;28;93401;-76
2022/01/15 10:32:18;;;;;;;4.95;3.75;;;17.00;54.60;;;;;;4913618;28;92727;-75
2022/01/15 10:34:45;;;;;;;5.38;3.92;;;16.90;54.60;;;;;;4913366;28;92566;-75
2022/01/15 10:37:34;;;;;;;4.95;3.97;;;17.00;54.60;;;;;;4916429;28;92864;-75
2022/01/15 10:40:08;;;;;;;5.03;3.25;;;17.00;54.50;;;;;;4916362;28;97251;-75
2022/01/15 10:42:35;;;;;;;5.38;3.63;;;17.00;54.40;;;;;;4914335;28;95201;-75
2022/01/15 10:45:12;;;;;;;5.38;3.70;;;16.90;54.50;;;;;;4912438;28;92862;-75
2022/01/15 10:47:44;;;;;;;5.93;4.20;;;16.90;55.40;;;;;;4913603;28;93321;-75
2022/01/15 10:50:23;;;;;;;6.65;3.60;;;16.90;54.40;;;;;;4912799;28;93992;-74
2022/01/15 10:52:49;;;;;;;4.18;3.40;;;17.00;54.40;;;;;;4912706;28;92805;-75
2022/01/15 10:55:16;;;;;;;5.38;3.75;;;17.00;54.40;;;;;;4912687;28;92972;-75
2022/01/15 10:57:55;;;;;;;4.68;3.58;;;16.90;54.30;;;;;;4912974;28;91779;-74
2022/01/15 11:00:25;;;;;;;4.38;3.35;;;17.00;54.30;;;;;;4912717;28;92537;-74
2022/01/15 11:03:00;;;;;;;5.00;3.47;;;16.90;54.30;;;;;;4912752;28;94080;-75
2022/01/15 11:05:30;;;;;;;4.10;3.70;;;17.00;54.40;;;;;;4912179;28;95299;-75
2022/01/15 11:08:07;;;;;;;5.70;4.00;;;16.90;54.40;;;;;;4912466;28;92827;-74
2022/01/15 11:10:41;;;;;;;4.45;3.80;;;16.90;54.30;;;;;;4912238;28;93518;-74
2022/01/15 11:13:10;;;;;;;4.97;3.63;;;17.00;54.40;;;;;;4911788;28;94488;-74
2022/01/15 11:15:39;;;;;;;4.70;3.63;;;16.90;54.40;;;;;;4912814;28;92876;-74
2022/01/15 11:18:05;;;;;;;4.78;3.58;;;16.90;54.30;;;;;;4912693;28;92957;-75
2022/01/15 11:20:33;;;;;;;4.63;3.67;;;16.90;54.30;;;;;;4912515;28;94028;-75
2022/01/15 11:23:02;;;;;;;4.75;3.63;;;16.90;54.30;;;;;;4912832;28;94552;-74
2022/01/15 11:25:29;;;;;;;6.25;4.30;;;16.90;54.30;;;;;;4913106;28;92629;-75
2022/01/15 11:27:59;;;;;;;4.57;3.67;;;16.90;54.40;;;;;;4912738;28;92611;-75
2022/01/15 11:30:26;;;;;;;3.78;3.30;;;16.90;54.40;;;;;;4911006;28;95724;-75
2022/01/15 11:32:53;;;;;;;5.80;3.40;;;16.90;54.40;;;;;;4912006;28;95009;-73
2022/01/15 11:35:19;;;;;;;4.20;3.60;;;16.90;54.40;;;;;;4912724;28;92522;-75
2022/01/15 11:37:49;;;;;;;4.28;3.72;;;16.90;54.40;;;;;;4912981;28;93027;-75
2022/01/15 11:40:43;;;;;;;4.70;3.33;;;16.90;54.40;;;;;;4912176;28;93633;-75
2022/01/15 11:43:28;;;;;;;4.97;3.70;;;16.90;54.30;;;;;;4911804;28;94434;-75
2022/01/15 11:45:58;;;;;;;4.40;3.92;;;16.90;54.30;;;;;;4912664;28;92801;-75
2022/01/15 11:48:30;;;;;;;5.57;3.65;;;16.90;54.40;;;;;;4912955;28;92127;-75
2022/01/15 11:51:13;;;;;;;4.05;3.50;;;16.90;54.40;;;;;;4911108;28;93341;-75
2022/01/15 11:54:00;;;;;;;4.25;3.47;;;16.90;54.30;;;;;;4911714;28;93199;-75
2022/01/15 11:56:37;;;;;;;3.80;3.33;;;16.90;54.40;;;;;;4911302;28;94876;-75
2022/01/15 11:59:25;;;;;;;4.88;3.88;;;16.80;54.30;;;;;;4911739;28;93747;-75
2022/01/15 12:01:59;;;;;;;4.85;3.90;;;16.80;54.20;;;;;;4911473;28;93227;-75
2022/01/15 12:04:32;;;;;;;4.00;3.55;;;16.80;54.30;;;;;;4912276;28;92986;-74
2022/01/15 12:07:06;;;;;;;3.92;3.45;;;16.80;54.20;;;;;;4911441;28;93810;-75
2022/01/15 12:09:42;;;;;;;4.57;3.78;;;16.80;54.30;;;;;;4912154;28;93480;-75
2022/01/15 12:14:57;;;;;;;4.53;3.78;;;16.80;54.20;;;;;;4912368;28;93278;-73
2022/01/15 12:17:31;;;;;;;4.30;3.70;;;16.80;54.30;;;;;;4912303;28;93837;-75
2022/01/15 12:20:08;;;;;;;3.85;3.42;;;16.80;54.30;;;;;;4913952;28;92728;-74
2022/01/15 12:22:45;;;;;;;3.83;3.40;;;16.80;54.30;;;;;;4915136;28;95509;-74
2022/01/15 12:25:13;;;;;;;5.18;3.70;;;16.80;54.30;;;;;;4912961;28;95215;-74
2022/01/15 12:27:40;;;;;;;4.25;3.40;;;16.70;54.30;;;;;;4912123;28;92570;-74
2022/01/15 12:30:13;;;;;;;5.43;4.18;;;16.70;54.40;;;;;;4911084;28;92666;-74
2022/01/15 12:32:44;;;;;;;3.55;3.22;;;16.70;54.30;;;;;;4911309;28;94304;-74
2022/01/15 12:35:18;;;;;;;4.18;3.50;;;16.70;54.40;;;;;;4911138;28;93949;-75
2022/01/15 12:38:13;;;;;;;4.35;3.70;;;16.70;54.30;;;;;;4912614;28;92440;-74
2022/01/15 12:40:47;;;;;;;5.00;4.05;;;16.70;54.40;;;;;;4911955;28;92133;-75
2022/01/15 12:43:23;;;;;;;4.30;3.42;;;16.70;54.40;;;;;;4911509;28;93053;-75
2022/01/15 12:45:52;;;;;;;4.88;4.03;;;16.70;54.40;;;;;;4911107;28;92962;-74
2022/01/15 12:48:23;;;;;;;4.25;3.38;;;16.70;54.40;;;;;;4909569;28;95440;-75
2022/01/15 12:50:58;;;;;;;4.53;4.00;;;16.70;54.30;;;;;;4911350;28;93188;-75
2022/01/15 12:53:26;;;;;;;5.32;3.92;;;16.60;54.40;;;;;;4911127;28;93047;-75
2022/01/15 12:55:53;;;;;;;4.60;4.05;;;16.70;54.30;;;;;;4911844;28;93329;-74
2022/01/15 12:58:24;;;;;;;5.45;4.30;;;16.60;54.40;;;;;;4910804;28;92570;-75
2022/01/15 13:00:51;;;;;;;5.15;4.18;;;16.70;54.30;;;;;;4912855;28;92517;-75
2022/01/15 13:03:23;;;;;;;5.57;4.00;;;16.60;54.30;;;;;;4915855;28;93187;-74
2022/01/15 13:05:50;;;;;;;4.70;4.20;;;16.60;54.30;;;;;;4915183;28;95624;-74
2022/01/15 13:08:17;;;;;;;4.68;4.05;;;16.60;54.30;;;;;;4914923;28;92901;-74
2022/01/15 13:10:57;;;;;;;4.05;3.53;;;16.60;54.30;;;;;;4914212;28;93044;-75
2022/01/15 13:13:43;;;;;;;4.35;3.83;;;16.60;54.30;;;;;;4913077;28;95489;-74
2022/01/15 13:16:10;;;;;;;4.47;4.07;;;16.60;54.20;;;;;;4914303;28;95293;-74
2022/01/15 13:18:41;;;;;;;5.32;4.60;;;16.60;54.30;;;;;;4914731;28;94220;-75
2022/01/15 13:21:09;;;;;;;4.40;3.80;;;16.60;54.20;;;;;;4913530;28;93027;-77